createdAt,value
2023-03-06T00:00:27.070Z,4.15
2023-03-06T00:02:53.560Z,4.07
2023-03-06T00:05:20.065Z,4.30
2023-03-06T00:07:46.496Z,4.45
2023-03-06T00:10:17.640Z,4.25
2023-03-06T00:12:44.134Z,4.22
2023-03-06T00:15:11.014Z,2.53
2023-03-06T00:17:37.480Z,3.50
2023-03-06T00:20:04.581Z,3.45
2023-03-06T00:22:30.984Z,4.38
2023-03-06T00:24:57.406Z,3.90
2023-03-06T00:27:26.226Z,3.15
2023-03-06T00:29:56.466Z,3.33
2023-03-06T00:32:23.137Z,3.33
2023-03-06T00:34:50.161Z,4.13
2023-03-06T00:37:16.573Z,3.80
2023-03-06T00:39:42.975Z,3.38
2023-03-06T00:42:09.559Z,3.25
2023-03-06T00:44:36.041Z,3.45
2023-03-06T00:47:02.646Z,2.85
2023-03-06T00:49:29.061Z,3.13
2023-03-06T00:51:55.474Z,3.00
2023-03-06T00:54:21.881Z,2.92
2023-03-06T00:56:49.038Z,2.80
2023-03-06T00:59:15.438Z,2.17
2023-03-06T01:01:41.852Z,2.83
2023-03-06T01:04:08.442Z,2.75
2023-03-06T01:06:34.998Z,4.00
2023-03-06T01:09:01.531Z,3.30
2023-03-06T01:11:27.999Z,2.70
2023-03-06T01:13:54.487Z,3.53
2023-03-06T01:16:21.512Z,2.88
2023-03-06T01:18:48.044Z,3.22
2023-03-06T01:21:14.608Z,3.08
2023-03-06T01:23:41.056Z,3.30
2023-03-06T01:26:07.859Z,3.28
2023-03-06T01:28:37.082Z,3.45
2023-03-06T01:31:04.002Z,3.20
2023-03-06T01:33:30.606Z,3.15
2023-03-06T01:35:57.093Z,3.03
2023-03-06T01:38:23.561Z,3.65
2023-03-06T01:40:49.998Z,3.45
2023-03-06T01:43:26.152Z,4.10
2023-03-06T01:45:53.012Z,3.30
2023-03-06T01:48:21.294Z,2.78
2023-03-06T01:50:48.019Z,3.55
2023-03-06T01:53:15.122Z,2.90
2023-03-06T01:55:41.684Z,3.80
2023-03-06T01:58:09.389Z,2.85
2023-03-06T02:00:35.818Z,2.80
2023-03-06T02:03:07.145Z,3.10
2023-03-06T02:05:33.587Z,3.20
2023-03-06T02:08:00.239Z,3.63
2023-03-06T02:10:26.677Z,2.55
2023-03-06T02:12:53.260Z,3.67
2023-03-06T02:15:21.986Z,2.95
2023-03-06T02:17:49.843Z,2.83
2023-03-06T02:20:19.909Z,2.97
2023-03-06T02:22:54.035Z,2.65
2023-03-06T02:25:40.731Z,3.17
2023-03-06T02:28:08.590Z,2.45
2023-03-06T02:30:35.249Z,2.47
2023-03-06T02:33:02.115Z,2.80
2023-03-06T02:35:30.377Z,3.05
2023-03-06T02:37:58.113Z,2.50
2023-03-06T02:40:24.940Z,2.63
2023-03-06T02:42:53.261Z,2.55
2023-03-06T02:45:28.800Z,2.33
2023-03-06T02:47:55.315Z,2.20
2023-03-06T02:50:21.852Z,3.40
2023-03-06T02:52:48.334Z,2.28
2023-03-06T02:55:14.773Z,2.20
2023-03-06T02:57:41.250Z,1.90
2023-03-06T03:00:08.385Z,2.60
2023-03-06T03:02:34.883Z,1.55
2023-03-06T03:05:01.317Z,1.52
2023-03-06T03:07:27.741Z,2.10
2023-03-06T03:09:54.182Z,2.10
2023-03-06T03:12:22.390Z,1.75
2023-03-06T03:14:49.266Z,2.10
2023-03-06T03:17:16.173Z,2.10
2023-03-06T03:19:42.565Z,2.10
2023-03-06T03:22:08.986Z,1.80
2023-03-06T03:24:35.411Z,2.00
2023-03-06T03:27:02.143Z,1.88
2023-03-06T03:29:28.603Z,1.80
2023-03-06T03:31:55.069Z,1.70
2023-03-06T03:34:21.565Z,1.75
2023-03-06T03:36:47.990Z,1.70
2023-03-06T03:39:14.652Z,1.40
2023-03-06T03:41:41.238Z,2.60
2023-03-06T03:44:07.733Z,2.00
2023-03-06T03:46:34.255Z,1.45
2023-03-06T03:49:00.881Z,1.45
2023-03-06T03:51:27.312Z,1.52
2023-03-06T03:53:55.959Z,1.77
2023-03-06T03:56:22.727Z,1.73
2023-03-06T03:58:49.114Z,2.08
2023-03-06T04:01:15.608Z,1.73
2023-03-06T04:03:42.092Z,1.75
2023-03-06T04:06:08.545Z,1.65
2023-03-06T04:08:35.408Z,1.35
2023-03-06T04:11:02.974Z,1.58
2023-03-06T04:13:29.415Z,2.17
2023-03-06T04:15:55.959Z,1.65
2023-03-06T04:18:22.734Z,2.40
2023-03-06T04:20:49.699Z,1.98
2023-03-06T04:23:16.381Z,1.77
2023-03-06T04:25:42.826Z,2.13
2023-03-06T04:28:09.528Z,1.67
2023-03-06T04:30:35.935Z,1.90
2023-03-06T04:33:02.583Z,2.53
2023-03-06T04:35:29.065Z,1.65
2023-03-06T04:37:55.469Z,1.92
2023-03-06T04:40:23.504Z,2.45
2023-03-06T04:42:50.083Z,2.00
2023-03-06T04:45:16.564Z,1.60
2023-03-06T04:47:43.040Z,1.88
2023-03-06T04:50:10.195Z,2.13
2023-03-06T04:52:36.633Z,1.42
2023-03-06T04:55:08.612Z,2.28
2023-03-06T04:57:36.112Z,2.10
2023-03-06T05:00:04.624Z,2.40
2023-03-06T05:02:31.100Z,2.22
2023-03-06T05:04:57.540Z,2.17
2023-03-06T05:07:24.012Z,2.25
2023-03-06T05:09:50.562Z,1.77
2023-03-06T05:12:16.973Z,2.20
2023-03-06T05:14:45.657Z,2.00
2023-03-06T05:17:13.515Z,2.40
2023-03-06T05:19:40.198Z,2.30
2023-03-06T05:22:07.028Z,2.17
2023-03-06T05:24:33.496Z,1.90
2023-03-06T05:27:00.096Z,2.30
2023-03-06T05:29:26.564Z,2.13
2023-03-06T05:31:53.320Z,1.70
2023-03-06T05:34:19.966Z,2.20
2023-03-06T05:36:47.400Z,2.22
2023-03-06T05:39:13.875Z,2.28
2023-03-06T05:41:40.318Z,2.47
2023-03-06T05:44:06.923Z,2.30
2023-03-06T05:46:33.325Z,2.20
2023-03-06T05:48:59.876Z,2.45
2023-03-06T05:51:26.801Z,2.70
2023-03-06T05:53:53.255Z,2.20
2023-03-06T05:56:21.783Z,2.67
2023-03-06T05:58:48.524Z,2.15
2023-03-06T06:01:16.032Z,2.47
2023-03-06T06:03:42.769Z,2.50
2023-03-06T06:06:10.291Z,2.30
2023-03-06T06:08:36.917Z,2.30
2023-03-06T06:11:07.016Z,2.17
2023-03-06T06:13:33.864Z,2.25
2023-03-06T06:16:00.620Z,2.00
2023-03-06T06:18:27.127Z,2.70
2023-03-06T06:20:55.826Z,2.38
2023-03-06T06:23:22.346Z,2.00
2023-03-06T06:25:48.804Z,1.83
2023-03-06T06:28:15.264Z,2.10
2023-03-06T06:30:41.673Z,1.98
2023-03-06T06:33:08.033Z,2.13
2023-03-06T06:35:37.666Z,2.13
2023-03-06T06:38:04.086Z,1.63
2023-03-06T06:40:30.493Z,1.92
2023-03-06T06:42:56.957Z,1.73
2023-03-06T06:45:23.371Z,2.05
2023-03-06T06:47:50.131Z,2.08
2023-03-06T06:50:16.752Z,2.13
2023-03-06T06:52:43.189Z,1.73
2023-03-06T06:55:10.039Z,1.50
2023-03-06T06:57:36.454Z,1.65
2023-03-06T07:00:04.093Z,2.17
2023-03-06T07:02:32.260Z,2.13
2023-03-06T07:05:05.945Z,2.42
2023-03-06T07:07:35.931Z,1.67
2023-03-06T07:10:05.574Z,1.90
2023-03-06T07:12:32.980Z,1.67
2023-03-06T07:14:59.420Z,1.77
2023-03-06T07:17:25.841Z,1.60
2023-03-06T07:19:52.350Z,1.77
2023-03-06T07:22:18.718Z,2.65
2023-03-06T07:24:45.235Z,2.97
2023-03-06T07:27:11.639Z,1.75
2023-03-06T07:29:38.063Z,1.27
2023-03-06T07:32:04.630Z,1.90
2023-03-06T07:34:31.122Z,2.00
2023-03-06T07:36:57.520Z,2.28
2023-03-06T07:39:23.952Z,1.25
2023-03-06T07:41:50.397Z,1.67
2023-03-06T07:44:16.836Z,1.73
2023-03-06T07:46:43.268Z,1.75
2023-03-06T07:49:09.768Z,2.28
2023-03-06T07:51:36.179Z,2.05
2023-03-06T07:54:02.786Z,1.42
2023-03-06T07:56:29.239Z,1.50
2023-03-06T07:58:57.027Z,1.48
2023-03-06T08:01:24.218Z,1.75
2023-03-06T08:03:50.774Z,1.55
2023-03-06T08:06:22.263Z,1.33
2023-03-06T08:08:49.545Z,1.53
2023-03-06T08:11:16.848Z,1.30
2023-03-06T08:13:43.443Z,1.50
2023-03-06T08:16:10.404Z,2.60
2023-03-06T08:18:39.729Z,1.70
2023-03-06T08:21:06.305Z,1.60
2023-03-06T08:23:33.100Z,1.98
2023-03-06T08:26:00.609Z,1.75
2023-03-06T08:28:27.224Z,2.03
2023-03-06T08:30:53.963Z,2.13
2023-03-06T08:33:20.470Z,1.75
2023-03-06T08:35:46.873Z,1.63
2023-03-06T08:38:13.274Z,2.13
2023-03-06T08:40:39.766Z,2.10
2023-03-06T08:43:08.964Z,1.90
2023-03-06T08:45:35.405Z,2.30
2023-03-06T08:48:01.989Z,1.98
2023-03-06T08:50:28.374Z,2.03
2023-03-06T08:52:54.831Z,1.90
2023-03-06T08:55:21.248Z,2.10
2023-03-06T08:57:47.661Z,1.85
2023-03-06T09:00:14.408Z,2.10
2023-03-06T09:02:40.914Z,2.20
2023-03-06T09:05:08.418Z,2.25
2023-03-06T09:07:35.187Z,2.05
2023-03-06T09:10:01.965Z,2.05
2023-03-06T09:12:30.742Z,2.45
2023-03-06T09:14:57.382Z,2.30
2023-03-06T09:17:23.782Z,1.80
2023-03-06T09:19:51.038Z,2.17
2023-03-06T09:22:17.488Z,1.95
2023-03-06T09:24:44.023Z,2.17
2023-03-06T09:27:10.408Z,1.95
2023-03-06T09:29:36.836Z,2.25
2023-03-06T09:32:03.311Z,2.22
2023-03-06T09:34:29.801Z,2.88
2023-03-06T09:36:57.661Z,2.50
2023-03-06T09:39:24.639Z,2.47
2023-03-06T09:41:51.293Z,2.40
2023-03-06T09:44:22.734Z,2.65
2023-03-06T09:47:08.090Z,2.37
2023-03-06T09:49:37.668Z,2.83
2023-03-06T09:52:09.808Z,2.42
2023-03-06T09:54:43.055Z,2.35
2023-03-06T09:57:16.707Z,2.25
2023-03-06T09:59:45.201Z,2.42
2023-03-06T10:02:11.827Z,3.10
2023-03-06T10:04:40.504Z,2.35
2023-03-06T10:07:14.702Z,2.55
2023-03-06T10:09:59.883Z,2.58
2023-03-06T10:12:28.529Z,2.40
2023-03-06T10:14:55.017Z,2.53
2023-03-06T10:17:23.769Z,2.30
2023-03-06T10:19:50.782Z,2.92
2023-03-06T10:22:17.195Z,2.30
2023-03-06T10:25:02.582Z,3.10
2023-03-06T10:27:34.855Z,3.03
2023-03-06T10:30:03.623Z,2.53
2023-03-06T10:32:49.161Z,2.75
2023-03-06T10:35:18.599Z,2.45
2023-03-06T10:37:45.015Z,2.28
2023-03-06T10:40:21.720Z,3.13
2023-03-06T10:42:49.532Z,3.30
2023-03-06T10:45:18.713Z,3.47
2023-03-06T10:47:46.107Z,3.08
2023-03-06T10:50:24.748Z,3.40
2023-03-06T10:53:02.391Z,4.80
2023-03-06T10:55:30.561Z,3.53
2023-03-06T10:57:59.895Z,3.40
2023-03-06T11:00:28.994Z,4.05
2023-03-06T11:03:06.446Z,3.60
2023-03-06T11:05:33.063Z,3.33
2023-03-06T11:08:00.562Z,3.10
2023-03-06T11:10:30.817Z,3.35
2023-03-06T11:12:58.688Z,3.72
2023-03-06T11:15:26.224Z,3.03
2023-03-06T11:18:01.610Z,3.53
2023-03-06T11:20:51.558Z,3.83
2023-03-06T11:23:21.974Z,3.55
2023-03-06T11:25:50.553Z,3.35
2023-03-06T11:28:20.186Z,3.67
2023-03-06T11:30:50.000Z,3.70
2023-03-06T11:33:16.685Z,3.00
2023-03-06T11:35:50.468Z,2.95
2023-03-06T11:38:20.829Z,3.17
2023-03-06T11:40:51.461Z,2.65
2023-03-06T11:43:32.468Z,3.22
2023-03-06T11:46:02.085Z,3.05
2023-03-06T11:48:31.957Z,3.00
2023-03-06T11:51:10.765Z,3.20
2023-03-06T11:53:38.924Z,3.05
2023-03-06T11:56:05.410Z,3.20
2023-03-06T11:58:51.037Z,2.78
2023-03-06T12:01:20.414Z,3.20
2023-03-06T12:04:05.715Z,3.35
2023-03-06T12:06:41.373Z,3.03
2023-03-06T12:09:13.655Z,3.60
2023-03-06T12:11:44.203Z,3.20
2023-03-06T12:14:10.546Z,3.05
2023-03-06T12:16:55.962Z,3.03
2023-03-06T12:19:26.761Z,2.83
2023-03-06T12:21:56.059Z,3.17
2023-03-06T12:24:37.553Z,2.90
2023-03-06T12:27:04.189Z,2.85
2023-03-06T12:29:37.141Z,3.55
2023-03-06T12:32:14.724Z,2.67
2023-03-06T12:34:41.272Z,2.90
2023-03-06T12:37:10.773Z,3.13
2023-03-06T12:39:43.406Z,3.10
2023-03-06T12:42:22.572Z,3.10
2023-03-06T12:44:49.752Z,3.15
2023-03-06T12:47:19.565Z,2.60
2023-03-06T12:49:50.518Z,2.83
2023-03-06T12:52:30.264Z,2.88
2023-03-06T12:54:58.765Z,3.05
2023-03-06T12:57:25.690Z,2.67
2023-03-06T12:59:52.493Z,3.47
2023-03-06T13:02:37.682Z,3.00
2023-03-06T13:05:19.269Z,2.60
2023-03-06T13:07:55.738Z,3.35
2023-03-06T13:10:33.813Z,3.08
2023-03-06T13:13:05.251Z,2.42
2023-03-06T13:15:39.165Z,2.97
2023-03-06T13:18:24.039Z,2.55
2023-03-06T13:20:50.478Z,2.63
2023-03-06T13:23:29.350Z,3.22
2023-03-06T13:26:08.521Z,2.65
2023-03-06T13:28:49.941Z,3.85
2023-03-06T13:31:48.586Z,2.70
2023-03-06T13:34:33.523Z,3.00
2023-03-06T13:37:23.368Z,2.67
2023-03-06T13:39:55.804Z,2.65
2023-03-06T13:44:49.641Z,3.15
2023-03-06T13:47:24.917Z,3.28
2023-03-06T13:49:51.353Z,2.67
2023-03-06T13:52:41.699Z,3.70
2023-03-06T13:55:16.378Z,2.63
2023-03-06T13:57:43.040Z,3.05
2023-03-06T14:00:15.666Z,3.22
2023-03-06T14:02:55.218Z,3.63
2023-03-06T14:05:22.411Z,3.13
2023-03-06T14:08:02.361Z,3.08
2023-03-06T14:10:31.341Z,2.97
2023-03-06T14:12:57.697Z,2.88
2023-03-06T14:15:25.886Z,2.83
2023-03-06T14:18:13.545Z,3.50
2023-03-06T14:20:39.955Z,2.80
2023-03-06T14:23:21.725Z,3.03
2023-03-06T14:25:50.599Z,2.75
2023-03-06T14:28:24.247Z,3.65
2023-03-06T14:30:51.701Z,2.60
2023-03-06T14:33:26.528Z,2.50
2023-03-06T14:35:56.635Z,2.88
2023-03-06T14:38:23.280Z,3.28
2023-03-06T14:40:49.758Z,2.60
2023-03-06T14:43:20.752Z,2.78
2023-03-06T14:45:51.674Z,2.40
2023-03-06T14:48:18.344Z,2.60
2023-03-06T14:50:49.435Z,2.60
2023-03-06T14:53:18.112Z,2.53
2023-03-06T14:56:07.532Z,2.10
2023-03-06T14:58:48.431Z,2.40
2023-03-06T15:01:15.387Z,2.20
2023-03-06T15:03:43.957Z,2.50
2023-03-06T15:06:12.061Z,2.00
2023-03-06T15:08:39.606Z,2.10
2023-03-06T15:11:07.070Z,2.47
2023-03-06T15:13:33.993Z,1.90
2023-03-06T15:16:20.340Z,2.20
2023-03-06T15:19:00.454Z,1.73
2023-03-06T15:21:28.610Z,1.88
2023-03-06T15:23:56.730Z,1.90
2023-03-06T15:26:29.358Z,2.05
2023-03-06T15:29:09.061Z,2.28
2023-03-06T15:31:36.982Z,1.80
2023-03-06T15:34:06.510Z,2.25
2023-03-06T15:36:34.021Z,1.80
2023-03-06T15:39:01.329Z,1.50
2023-03-06T15:41:30.915Z,1.88
2023-03-06T15:44:01.774Z,1.75
2023-03-06T15:46:28.443Z,1.73
2023-03-06T15:49:04.310Z,1.88
2023-03-06T15:51:31.614Z,2.72
2023-03-06T15:54:09.772Z,2.08
2023-03-06T15:56:40.141Z,2.25
2023-03-06T15:59:10.867Z,1.90
2023-03-06T16:01:37.619Z,2.08
2023-03-06T16:04:04.209Z,2.17
2023-03-06T16:06:30.714Z,2.33
2023-03-06T16:08:57.086Z,1.88
2023-03-06T16:11:41.863Z,1.90
2023-03-06T16:14:15.935Z,1.88
2023-03-06T16:19:28.992Z,1.90
2023-03-06T16:21:55.910Z,1.90
2023-03-06T16:24:23.433Z,2.30
2023-03-06T16:26:51.181Z,2.15
2023-03-06T16:29:18.787Z,2.28
2023-03-06T16:31:45.385Z,2.50
2023-03-06T16:34:11.958Z,2.47
2023-03-06T16:36:38.596Z,2.30
2023-03-06T16:39:05.177Z,2.35
2023-03-06T16:41:31.924Z,2.60
2023-03-06T16:43:58.399Z,3.55
2023-03-06T16:46:25.229Z,2.72
2023-03-06T16:48:52.674Z,2.72
2023-03-06T16:51:20.604Z,2.90
2023-03-06T16:53:47.339Z,2.97
2023-03-06T16:56:14.779Z,4.18
2023-03-06T16:58:41.327Z,3.35
2023-03-06T17:01:08.487Z,3.47
2023-03-06T17:03:34.959Z,3.75
2023-03-06T17:06:01.401Z,3.70
2023-03-06T17:08:27.823Z,5.13
2023-03-06T17:10:54.238Z,4.22
2023-03-06T17:13:20.706Z,4.30
2023-03-06T17:15:58.949Z,4.28
2023-03-06T17:18:26.219Z,4.78
2023-03-06T17:20:53.220Z,4.80
2023-03-06T17:23:20.125Z,4.38
2023-03-06T17:25:46.806Z,5.25
2023-03-06T17:28:13.278Z,4.40
2023-03-06T17:30:39.717Z,4.75
2023-03-06T17:33:06.187Z,5.22
2023-03-06T17:35:34.165Z,5.65
2023-03-06T17:38:00.663Z,5.28
2023-03-06T17:40:27.215Z,5.30
2023-03-06T17:42:53.793Z,4.70
2023-03-06T17:45:20.227Z,5.97
2023-03-06T17:47:48.962Z,6.05
2023-03-06T17:50:15.572Z,5.45
2023-03-06T17:52:41.955Z,5.72
2023-03-06T17:55:08.662Z,5.60
2023-03-06T17:57:35.354Z,5.45
2023-03-06T18:00:01.858Z,4.93
2023-03-06T18:02:28.261Z,5.55
2023-03-06T18:04:55.759Z,5.60
2023-03-06T18:07:22.323Z,5.68
2023-03-06T18:09:48.926Z,5.97
2023-03-06T18:12:15.597Z,6.13
2023-03-06T18:14:42.034Z,6.40
2023-03-06T18:17:08.953Z,5.43
2023-03-06T18:19:35.384Z,5.90
2023-03-06T18:22:01.770Z,6.43
2023-03-06T18:24:28.191Z,7.15
2023-03-06T18:26:54.637Z,6.00
2023-03-06T18:29:21.153Z,6.65
2023-03-06T18:31:50.066Z,6.75
2023-03-06T18:34:17.908Z,7.80
2023-03-06T18:36:47.160Z,7.22
2023-03-06T18:39:14.920Z,6.97
2023-03-06T18:41:41.465Z,8.27
2023-03-06T18:44:07.920Z,8.15
2023-03-06T18:46:35.912Z,7.57
2023-03-06T18:49:02.514Z,9.73
2023-03-06T18:51:28.936Z,10.45
2023-03-06T18:53:58.991Z,10.52
2023-03-06T18:56:25.559Z,9.82
2023-03-06T18:58:52.751Z,11.50
2023-03-06T19:01:19.673Z,10.68
2023-03-06T19:03:46.193Z,10.48
2023-03-06T19:06:13.876Z,11.43
2023-03-06T19:08:40.811Z,10.40
2023-03-06T19:11:08.295Z,10.98
2023-03-06T19:13:34.759Z,9.82
2023-03-06T19:16:01.405Z,9.68
2023-03-06T19:18:28.958Z,10.98
2023-03-06T19:20:56.623Z,9.75
2023-03-06T19:23:23.214Z,8.35
2023-03-06T19:25:56.682Z,8.77
2023-03-06T19:28:23.217Z,9.38
2023-03-06T19:30:49.594Z,8.95
2023-03-06T19:33:16.072Z,8.38
2023-03-06T19:35:42.938Z,9.02
2023-03-06T19:38:10.350Z,8.07
2023-03-06T19:40:37.117Z,8.38
2023-03-06T19:43:04.075Z,8.18
2023-03-06T19:45:30.513Z,8.80
2023-03-06T19:48:00.852Z,8.57
2023-03-06T19:50:30.784Z,8.43
2023-03-06T19:52:57.457Z,7.70
2023-03-06T19:55:28.656Z,8.52
2023-03-06T19:57:55.129Z,8.05
2023-03-06T20:00:21.723Z,8.93
2023-03-06T20:02:48.161Z,8.18
2023-03-06T20:05:14.559Z,7.35
2023-03-06T20:07:41.007Z,8.02
2023-03-06T20:10:07.634Z,7.25
2023-03-06T20:12:34.181Z,8.05
2023-03-06T20:15:00.590Z,8.05
2023-03-06T20:17:27.019Z,9.13
2023-03-06T20:19:53.508Z,7.38
2023-03-06T20:22:19.989Z,8.45
2023-03-06T20:24:46.467Z,9.50
2023-03-06T20:27:12.921Z,7.95
2023-03-06T20:29:43.471Z,7.90
2023-03-06T20:32:10.412Z,7.45
2023-03-06T20:34:40.930Z,7.55
2023-03-06T20:37:10.297Z,7.93
2023-03-06T20:39:36.988Z,7.55
2023-03-06T20:42:03.974Z,7.35
2023-03-06T20:44:30.502Z,7.18
2023-03-06T20:46:56.942Z,8.20
2023-03-06T20:49:24.356Z,7.00
2023-03-06T20:51:51.996Z,6.78
2023-03-06T20:54:18.549Z,6.15
2023-03-06T20:56:47.381Z,6.95
2023-03-06T20:59:13.925Z,6.03
2023-03-06T21:01:41.943Z,6.50
2023-03-06T21:04:10.109Z,7.55
2023-03-06T21:06:37.140Z,6.95
2023-03-06T21:09:04.853Z,5.65
2023-03-06T21:11:31.372Z,7.00
2023-03-06T21:13:58.292Z,6.47
2023-03-06T21:16:26.052Z,6.38
2023-03-06T21:18:53.881Z,6.43
2023-03-06T21:21:21.753Z,5.78
2023-03-06T21:23:48.492Z,5.53
2023-03-06T21:26:16.718Z,6.05
2023-03-06T21:28:43.159Z,6.85
2023-03-06T21:31:10.782Z,5.93
2023-03-06T21:33:37.607Z,6.13
2023-03-06T21:36:04.589Z,5.47
2023-03-06T21:38:31.188Z,5.40
2023-03-06T21:41:05.853Z,5.78
2023-03-06T21:43:32.360Z,5.57
2023-03-06T21:45:59.312Z,5.55
2023-03-06T21:48:25.799Z,6.65
2023-03-06T21:50:52.391Z,5.57
2023-03-06T21:53:18.857Z,4.97
2023-03-06T21:55:45.414Z,5.13
2023-03-06T21:58:11.944Z,5.05
2023-03-06T22:00:38.857Z,4.82
2023-03-06T22:03:06.684Z,5.50
2023-03-06T22:05:33.185Z,4.60
2023-03-06T22:07:59.582Z,5.22
2023-03-06T22:10:26.034Z,5.13
2023-03-06T22:12:53.968Z,5.10
2023-03-06T22:15:21.929Z,4.90
2023-03-06T22:17:48.752Z,5.13
2023-03-06T22:20:15.543Z,4.82
2023-03-06T22:22:42.396Z,4.95
2023-03-06T22:25:09.245Z,4.93
2023-03-06T22:27:36.252Z,4.78
2023-03-06T22:30:02.795Z,4.57
2023-03-06T22:32:29.632Z,5.55
2023-03-06T22:34:58.823Z,4.78
2023-03-06T22:37:25.560Z,4.78
2023-03-06T22:39:52.140Z,5.13
2023-03-06T22:42:18.719Z,4.43
2023-03-06T22:44:45.409Z,5.00
2023-03-06T22:47:11.865Z,4.65
2023-03-06T22:49:38.321Z,5.18
2023-03-06T22:52:04.794Z,4.95
2023-03-06T22:54:31.391Z,5.30
2023-03-06T22:56:57.825Z,4.50
2023-03-06T22:59:24.377Z,4.40
2023-03-06T23:01:50.928Z,4.78
2023-03-06T23:04:17.431Z,4.38
2023-03-06T23:06:44.760Z,4.82
2023-03-06T23:09:20.616Z,4.88
2023-03-06T23:11:47.492Z,4.50
2023-03-06T23:14:14.142Z,4.97
2023-03-06T23:16:40.877Z,4.63
2023-03-06T23:19:07.638Z,5.00
2023-03-06T23:21:34.652Z,4.65
2023-03-06T23:24:01.531Z,5.03
2023-03-06T23:26:29.715Z,4.78
2023-03-06T23:28:56.670Z,4.05
2023-03-06T23:31:24.852Z,4.60
2023-03-06T23:33:51.298Z,4.47
2023-03-06T23:36:33.293Z,4.68
2023-03-06T23:38:59.758Z,5.45
2023-03-06T23:41:26.321Z,4.93
2023-03-06T23:43:55.064Z,4.93
2023-03-06T23:46:22.017Z,4.43
2023-03-06T23:48:48.502Z,4.85
2023-03-06T23:51:17.192Z,5.03
2023-03-06T23:53:44.555Z,4.57
2023-03-06T23:56:11.341Z,4.60
2023-03-06T23:58:37.835Z,4.50
